createdAt,value
2023-02-05T00:01:49.278Z,64.16
2023-02-05T00:04:15.588Z,63.58
2023-02-05T00:06:41.944Z,63.67
2023-02-05T00:09:08.248Z,64.34
2023-02-05T00:11:34.610Z,64.12
2023-02-05T00:14:00.994Z,63.86
2023-02-05T00:16:27.646Z,63.32
2023-02-05T00:18:54.315Z,65.32
2023-02-05T00:21:21.423Z,64.88
2023-02-05T00:23:48.194Z,64.82
2023-02-05T00:26:14.840Z,63.80
2023-02-05T00:28:41.759Z,63.09
2023-02-05T00:31:16.193Z,63.97
2023-02-05T00:33:43.016Z,64.05
2023-02-05T00:36:12.431Z,63.64
2023-02-05T00:38:39.723Z,63.69
2023-02-05T00:41:06.095Z,63.46
2023-02-05T00:43:32.433Z,63.47
2023-02-05T00:45:58.810Z,64.84
2023-02-05T00:48:25.181Z,64.53
2023-02-05T00:50:52.087Z,64.25
2023-02-05T00:53:19.182Z,64.91
2023-02-05T00:55:45.605Z,63.48
2023-02-05T00:58:12.150Z,63.31
2023-02-05T01:00:38.753Z,63.73
2023-02-05T01:03:05.216Z,63.11
2023-02-05T01:05:33.274Z,63.09
2023-02-05T01:07:59.763Z,63.24
2023-02-05T01:10:26.449Z,63.77
2023-02-05T01:12:52.978Z,62.58
2023-02-05T01:15:19.625Z,63.15
2023-02-05T01:17:46.403Z,62.85
2023-02-05T01:20:13.453Z,63.33
2023-02-05T01:22:40.042Z,62.56
2023-02-05T01:25:06.650Z,63.50
2023-02-05T01:27:33.733Z,64.43
2023-02-05T01:30:00.208Z,64.04
2023-02-05T01:32:27.720Z,63.73
2023-02-05T01:34:54.228Z,64.16
2023-02-05T01:37:20.779Z,63.16
2023-02-05T01:39:47.092Z,64.06
2023-02-05T01:42:18.326Z,64.38
2023-02-05T01:44:44.995Z,64.26
2023-02-05T01:47:11.323Z,63.10
2023-02-05T01:49:42.203Z,63.62
2023-02-05T01:52:11.785Z,62.25
2023-02-05T01:54:40.315Z,62.57
2023-02-05T01:57:09.743Z,63.23
2023-02-05T01:59:38.813Z,64.06
2023-02-05T02:02:07.998Z,64.27
2023-02-05T02:04:42.129Z,63.78
2023-02-05T02:07:10.395Z,63.09
2023-02-05T02:09:38.275Z,63.09
2023-02-05T02:12:04.770Z,63.65
2023-02-05T02:14:32.038Z,63.43
2023-02-05T02:17:00.438Z,62.45
2023-02-05T02:19:31.604Z,63.00
2023-02-05T02:21:57.868Z,63.15
2023-02-05T02:24:42.525Z,63.98
2023-02-05T02:27:18.060Z,64.43
2023-02-05T02:29:52.079Z,64.37
2023-02-05T02:32:24.890Z,64.10
2023-02-05T02:34:55.854Z,63.67
2023-02-05T02:37:31.143Z,63.48
2023-02-05T02:40:00.430Z,63.00
2023-02-05T02:42:40.523Z,62.79
2023-02-05T02:45:08.288Z,62.59
2023-02-05T02:47:37.478Z,63.14
2023-02-05T02:50:11.374Z,62.72
2023-02-05T02:52:39.835Z,62.21
2023-02-05T02:55:09.492Z,62.20
2023-02-05T02:57:37.784Z,62.42
2023-02-05T03:00:08.904Z,62.88
2023-02-05T03:02:37.466Z,63.35
2023-02-05T03:05:07.829Z,64.34
2023-02-05T03:07:36.476Z,64.28
2023-02-05T03:10:07.625Z,65.17
2023-02-05T03:12:34.269Z,65.50
2023-02-05T03:15:00.729Z,65.33
2023-02-05T03:17:27.705Z,64.98
2023-02-05T03:20:02.918Z,64.42
2023-02-05T03:22:29.260Z,64.17
2023-02-05T03:24:55.798Z,65.41
2023-02-05T03:27:22.625Z,65.41
2023-02-05T03:29:49.544Z,64.86
2023-02-05T03:32:18.938Z,64.40
2023-02-05T03:35:00.580Z,64.41
2023-02-05T03:37:45.566Z,64.25
2023-02-05T03:40:11.862Z,64.90
2023-02-05T03:42:50.236Z,64.08
2023-02-05T03:45:26.134Z,63.64
2023-02-05T03:48:04.715Z,64.78
2023-02-05T03:50:39.922Z,64.39
2023-02-05T03:53:12.176Z,63.59
2023-02-05T03:55:40.973Z,63.74
2023-02-05T03:58:11.039Z,63.92
2023-02-05T04:00:37.610Z,63.36
2023-02-05T04:03:04.219Z,64.18
2023-02-05T04:05:30.656Z,64.38
2023-02-05T04:07:57.011Z,64.33
2023-02-05T04:10:23.388Z,64.15
2023-02-05T04:12:49.741Z,63.77
2023-02-05T04:15:16.091Z,64.72
2023-02-05T04:17:42.411Z,64.21
2023-02-05T04:20:08.986Z,64.72
2023-02-05T04:22:35.367Z,65.06
2023-02-05T04:25:01.694Z,64.72
2023-02-05T04:27:28.080Z,65.70
2023-02-05T04:29:54.406Z,65.25
2023-02-05T04:32:20.716Z,65.13
2023-02-05T04:34:47.026Z,65.04
2023-02-05T04:37:13.305Z,65.02
2023-02-05T04:39:39.659Z,64.76
2023-02-05T04:42:05.994Z,65.93
2023-02-05T04:44:32.296Z,65.27
2023-02-05T04:46:59.556Z,66.15
2023-02-05T04:49:25.927Z,66.01
2023-02-05T04:51:52.231Z,66.20
2023-02-05T04:54:18.618Z,67.03
2023-02-05T04:56:46.742Z,67.13
2023-02-05T04:59:13.080Z,66.43
2023-02-05T05:01:39.374Z,67.46
2023-02-05T05:04:05.676Z,68.25
2023-02-05T05:06:32.100Z,67.70
2023-02-05T05:08:58.440Z,67.03
2023-02-05T05:11:24.719Z,67.00
2023-02-05T05:13:52.087Z,66.72
2023-02-05T05:16:18.792Z,65.95
2023-02-05T05:18:45.112Z,65.76
2023-02-05T05:21:11.987Z,66.44
2023-02-05T05:23:38.407Z,65.56
2023-02-05T05:26:06.017Z,65.35
2023-02-05T05:28:34.457Z,65.77
2023-02-05T05:31:07.499Z,65.60
2023-02-05T05:33:33.819Z,66.01
2023-02-05T05:36:00.122Z,65.71
2023-02-05T05:38:26.454Z,67.13
2023-02-05T05:41:11.376Z,67.38
2023-02-05T05:43:46.435Z,66.99
2023-02-05T05:46:13.418Z,68.37
2023-02-05T05:48:39.727Z,67.61
2023-02-05T05:51:06.044Z,67.48
2023-02-05T05:53:32.760Z,66.68
2023-02-05T05:55:59.423Z,67.21
2023-02-05T05:58:25.734Z,67.55
2023-02-05T06:00:52.098Z,69.00
2023-02-05T06:03:18.455Z,68.63
2023-02-05T06:05:44.794Z,67.78
2023-02-05T06:08:11.204Z,68.16
2023-02-05T06:10:37.550Z,68.30
2023-02-05T06:13:03.884Z,67.76
2023-02-05T06:15:30.181Z,68.06
2023-02-05T06:17:56.490Z,67.98
2023-02-05T06:20:23.948Z,68.14
2023-02-05T06:22:50.265Z,67.08
2023-02-05T06:25:16.711Z,66.55
2023-02-05T06:27:43.018Z,67.26
2023-02-05T06:30:09.968Z,67.69
2023-02-05T06:32:36.297Z,67.42
2023-02-05T06:35:02.630Z,66.82
2023-02-05T06:37:46.119Z,67.18
2023-02-05T06:40:15.481Z,68.06
2023-02-05T06:42:41.933Z,68.18
2023-02-05T06:45:08.562Z,68.07
2023-02-05T06:47:34.886Z,67.59
2023-02-05T06:50:01.191Z,68.02
2023-02-05T06:52:27.548Z,67.76
2023-02-05T06:54:53.855Z,68.82
2023-02-05T06:57:20.164Z,67.92
2023-02-05T06:59:46.444Z,67.88
2023-02-05T07:02:13.368Z,68.61
2023-02-05T07:04:39.705Z,69.29
2023-02-05T07:07:06.130Z,69.57
2023-02-05T07:09:32.567Z,69.07
2023-02-05T07:11:58.890Z,68.58
2023-02-05T07:14:25.200Z,68.14
2023-02-05T07:16:51.612Z,67.59
2023-02-05T07:19:17.899Z,68.81
2023-02-05T07:21:44.474Z,68.38
2023-02-05T07:24:10.808Z,67.35
2023-02-05T07:26:38.600Z,67.37
2023-02-05T07:29:04.925Z,68.28
2023-02-05T07:31:31.364Z,68.45
2023-02-05T07:33:57.727Z,67.69
2023-02-05T07:36:24.077Z,67.79
2023-02-05T07:38:50.485Z,67.72
2023-02-05T07:41:16.910Z,68.29
2023-02-05T07:43:43.554Z,68.28
2023-02-05T07:46:14.523Z,68.62
2023-02-05T07:48:40.862Z,68.93
2023-02-05T07:51:07.239Z,69.09
2023-02-05T07:53:33.741Z,69.38
2023-02-05T07:56:03.933Z,69.42
2023-02-05T07:58:30.292Z,68.91
2023-02-05T08:01:00.062Z,69.46
2023-02-05T08:03:26.418Z,69.00
2023-02-05T08:05:53.008Z,69.14
2023-02-05T08:08:19.405Z,69.13
2023-02-05T08:10:45.701Z,68.20
2023-02-05T08:13:11.999Z,69.50
2023-02-05T08:15:39.068Z,69.18
2023-02-05T08:18:05.431Z,68.58
2023-02-05T08:20:31.923Z,69.44
2023-02-05T08:22:58.296Z,68.76
2023-02-05T08:25:24.640Z,68.43
2023-02-05T08:27:50.929Z,69.09
2023-02-05T08:30:18.068Z,68.86
2023-02-05T08:32:47.364Z,68.45
2023-02-05T08:35:13.663Z,68.35
2023-02-05T08:37:40.016Z,68.05
2023-02-05T08:40:06.558Z,68.88
2023-02-05T08:42:32.901Z,67.81
2023-02-05T08:44:59.886Z,67.62
2023-02-05T08:47:26.505Z,68.17
2023-02-05T08:49:52.886Z,67.39
2023-02-05T08:52:19.240Z,67.95
2023-02-05T08:54:46.592Z,68.00
2023-02-05T08:57:12.984Z,66.50
2023-02-05T08:59:39.401Z,68.73
2023-02-05T09:02:05.754Z,68.20
2023-02-05T09:04:32.126Z,68.28
2023-02-05T09:06:58.579Z,68.70
2023-02-05T09:09:24.935Z,67.84
2023-02-05T09:11:51.340Z,67.14
2023-02-05T09:14:17.687Z,67.43
2023-02-05T09:16:44.030Z,67.13
2023-02-05T09:19:10.355Z,66.38
2023-02-05T09:21:36.707Z,66.68
2023-02-05T09:24:03.085Z,67.58
2023-02-05T09:26:29.475Z,66.41
2023-02-05T09:28:55.815Z,66.52
2023-02-05T09:31:22.302Z,66.16
2023-02-05T09:33:48.897Z,66.44
2023-02-05T09:36:16.966Z,66.38
2023-02-05T09:38:45.486Z,64.83
2023-02-05T09:41:14.894Z,65.47
2023-02-05T09:43:50.473Z,65.47
2023-02-05T09:46:19.867Z,64.76
2023-02-05T09:48:53.785Z,64.29
2023-02-05T09:51:30.298Z,63.79
2023-02-05T09:54:00.267Z,63.63
2023-02-05T09:56:27.500Z,63.92
2023-02-05T09:58:54.884Z,64.04
2023-02-05T10:01:22.802Z,64.54
2023-02-05T10:03:56.009Z,64.33
2023-02-05T10:06:25.169Z,63.45
2023-02-05T10:08:54.465Z,64.19
2023-02-05T10:11:41.031Z,63.99
2023-02-05T10:14:13.247Z,62.28
2023-02-05T10:16:52.779Z,62.38
2023-02-05T10:19:24.757Z,63.29
2023-02-05T10:21:53.831Z,63.95
2023-02-05T10:24:35.421Z,62.83
2023-02-05T10:27:11.114Z,62.25
2023-02-05T10:29:43.898Z,62.29
2023-02-05T10:32:23.881Z,61.40
2023-02-05T10:34:57.868Z,61.58
2023-02-05T10:37:32.505Z,62.03
2023-02-05T10:39:59.356Z,61.37
2023-02-05T10:42:34.735Z,62.24
2023-02-05T10:45:12.840Z,61.52
2023-02-05T10:47:53.103Z,60.86
2023-02-05T10:50:30.684Z,62.31
2023-02-05T10:52:57.093Z,62.46
2023-02-05T10:55:23.475Z,61.35
2023-02-05T10:57:49.928Z,62.26
2023-02-05T11:00:18.381Z,61.57
2023-02-05T11:02:47.630Z,61.86
2023-02-05T11:05:17.082Z,61.96
2023-02-05T11:07:50.672Z,62.05
2023-02-05T11:10:17.043Z,62.31
2023-02-05T11:12:44.697Z,60.77
2023-02-05T11:15:19.904Z,60.24
2023-02-05T11:17:50.012Z,60.55
2023-02-05T11:20:16.629Z,60.60
2023-02-05T11:22:42.961Z,60.17
2023-02-05T11:25:26.278Z,60.93
2023-02-05T11:27:52.919Z,60.56
2023-02-05T11:30:47.601Z,60.14
2023-02-05T11:33:24.320Z,61.37
2023-02-05T11:36:01.697Z,60.93
2023-02-05T11:38:30.953Z,61.09
2023-02-05T11:40:58.882Z,60.32
2023-02-05T11:43:34.178Z,60.54
2023-02-05T11:46:01.868Z,60.40
2023-02-05T11:48:38.933Z,59.16
2023-02-05T11:51:07.012Z,60.17
2023-02-05T11:53:34.752Z,59.38
2023-02-05T11:56:08.238Z,59.29
2023-02-05T11:58:37.295Z,58.67
2023-02-05T12:01:21.419Z,60.68
2023-02-05T12:03:57.724Z,58.56
2023-02-05T12:06:28.922Z,57.46
2023-02-05T12:08:55.453Z,59.43
2023-02-05T12:11:21.704Z,59.11
2023-02-05T12:13:50.987Z,58.13
2023-02-05T12:16:36.310Z,58.50
2023-02-05T12:19:07.492Z,59.34
2023-02-05T12:21:42.768Z,59.66
2023-02-05T12:24:25.396Z,59.12
2023-02-05T12:26:56.053Z,58.48
2023-02-05T12:29:22.412Z,59.13
2023-02-05T12:32:04.851Z,57.88
2023-02-05T12:34:34.210Z,59.20
2023-02-05T12:37:09.552Z,59.36
2023-02-05T12:39:38.653Z,59.43
2023-02-05T12:42:11.773Z,59.32
2023-02-05T12:45:03.529Z,59.18
2023-02-05T12:47:36.018Z,57.89
2023-02-05T12:50:02.287Z,57.84
2023-02-05T12:52:42.537Z,57.43
2023-02-05T12:55:08.872Z,56.85
2023-02-05T12:57:46.832Z,58.63
2023-02-05T13:00:19.640Z,58.29
2023-02-05T13:03:05.781Z,57.38
2023-02-05T13:05:38.086Z,56.94
2023-02-05T13:08:24.952Z,58.51
2023-02-05T13:11:01.975Z,58.42
2023-02-05T13:13:33.099Z,57.25
2023-02-05T13:16:05.570Z,57.33
2023-02-05T13:18:38.457Z,57.00
2023-02-05T13:21:29.463Z,57.33
2023-02-05T13:24:22.392Z,55.73
2023-02-05T13:27:07.256Z,55.68
2023-02-05T13:29:39.064Z,56.24
2023-02-05T13:32:15.739Z,56.77
2023-02-05T13:34:43.164Z,55.83
2023-02-05T13:37:11.012Z,56.11
2023-02-05T13:39:40.417Z,55.44
2023-02-05T13:42:27.057Z,55.47
2023-02-05T13:44:59.394Z,55.33
2023-02-05T13:47:49.312Z,56.07
2023-02-05T13:50:28.214Z,55.82
2023-02-05T13:53:03.918Z,56.19
2023-02-05T13:55:42.310Z,56.87
2023-02-05T13:58:29.124Z,56.33
2023-02-05T14:00:55.512Z,56.43
2023-02-05T14:03:33.565Z,56.09
2023-02-05T14:05:59.913Z,55.20
2023-02-05T14:08:27.698Z,56.25
2023-02-05T14:10:58.970Z,54.65
2023-02-05T14:13:32.553Z,56.10
2023-02-05T14:16:18.852Z,56.94
2023-02-05T14:18:47.992Z,56.63
2023-02-05T14:21:29.567Z,57.30
2023-02-05T14:23:56.886Z,57.50
2023-02-05T14:26:43.178Z,56.69
2023-02-05T14:29:27.973Z,57.69
2023-02-05T14:31:54.268Z,57.34
2023-02-05T14:34:28.292Z,57.46
2023-02-05T14:36:55.116Z,57.30
2023-02-05T14:39:26.003Z,56.36
2023-02-05T14:41:58.616Z,56.88
2023-02-05T14:44:44.306Z,56.53
2023-02-05T14:47:32.813Z,57.95
2023-02-05T14:50:02.546Z,57.43
2023-02-05T14:52:37.422Z,58.06
2023-02-05T14:55:12.694Z,57.33
2023-02-05T14:57:39.012Z,58.47
2023-02-05T15:00:14.357Z,59.03
2023-02-05T15:02:46.824Z,56.97
2023-02-05T15:05:22.437Z,58.74
2023-02-05T15:07:50.611Z,58.21
2023-02-05T15:10:21.293Z,59.41
2023-02-05T15:12:56.855Z,58.40
2023-02-05T15:15:31.376Z,59.23
2023-02-05T15:18:02.294Z,59.21
2023-02-05T15:20:32.339Z,58.54
2023-02-05T15:23:04.620Z,59.40
2023-02-05T15:25:52.873Z,59.84
2023-02-05T15:28:24.820Z,59.58
2023-02-05T15:30:53.980Z,59.52
2023-02-05T15:33:27.172Z,59.95
2023-02-05T15:35:53.932Z,59.63
2023-02-05T15:38:43.065Z,58.13
2023-02-05T15:41:11.101Z,58.30
2023-02-05T15:43:37.386Z,58.65
2023-02-05T15:46:05.670Z,58.77
2023-02-05T15:48:33.827Z,60.41
2023-02-05T15:51:03.076Z,60.38
2023-02-05T15:53:34.526Z,59.05
2023-02-05T15:56:24.209Z,59.38
2023-02-05T15:58:52.535Z,60.17
2023-02-05T16:01:27.920Z,59.33
2023-02-05T16:03:54.248Z,60.63
2023-02-05T16:06:21.633Z,59.63
2023-02-05T16:08:48.742Z,60.26
2023-02-05T16:11:34.509Z,58.83
2023-02-05T16:14:07.064Z,60.21
2023-02-05T16:16:36.231Z,59.48
2023-02-05T16:19:04.606Z,59.56
2023-02-05T16:21:30.904Z,60.22
2023-02-05T16:24:02.220Z,60.34
2023-02-05T16:26:31.658Z,60.19
2023-02-05T16:29:02.797Z,58.91
2023-02-05T16:31:30.228Z,59.34
2023-02-05T16:34:00.677Z,61.08
2023-02-05T16:36:31.633Z,61.50
2023-02-05T16:39:02.433Z,62.00
2023-02-05T16:41:31.160Z,60.77
2023-02-05T16:43:58.613Z,60.60
2023-02-05T16:46:26.225Z,61.33
2023-02-05T16:48:53.931Z,59.96
2023-02-05T16:51:33.906Z,60.46
2023-02-05T16:54:01.234Z,62.27
2023-02-05T16:56:32.764Z,62.79
2023-02-05T16:59:00.649Z,61.16
2023-02-05T17:01:28.870Z,62.33
2023-02-05T17:03:55.980Z,61.85
2023-02-05T17:06:22.929Z,63.03
2023-02-05T17:08:55.018Z,62.67
2023-02-05T17:11:33.029Z,63.41
2023-02-05T17:14:10.180Z,63.09
2023-02-05T17:16:39.341Z,63.03
2023-02-05T17:19:06.644Z,64.02
2023-02-05T17:21:33.953Z,63.05
2023-02-05T17:24:02.825Z,62.60
2023-02-05T17:26:31.498Z,62.52
2023-02-05T17:29:02.691Z,61.11
2023-02-05T17:31:30.407Z,61.28
2023-02-05T17:33:58.332Z,61.87
2023-02-05T17:36:25.309Z,62.39
2023-02-05T17:38:51.742Z,65.04
2023-02-05T17:41:38.928Z,64.41
2023-02-05T17:44:05.542Z,62.75
2023-02-05T17:46:32.008Z,62.89
2023-02-05T17:48:58.316Z,63.23
2023-02-05T17:51:25.281Z,62.86
2023-02-05T17:53:51.905Z,62.22
2023-02-05T17:56:19.392Z,62.65
2023-02-05T17:58:45.757Z,62.71
2023-02-05T18:01:12.452Z,63.62
2023-02-05T18:03:38.932Z,63.16
2023-02-05T18:06:05.910Z,63.17
2023-02-05T18:08:36.088Z,63.69
2023-02-05T18:11:02.796Z,62.85
2023-02-05T18:13:29.139Z,64.32
2023-02-05T18:16:01.304Z,63.12
2023-02-05T18:18:28.018Z,64.83
2023-02-05T18:20:54.387Z,64.76
2023-02-05T18:23:28.864Z,64.00
2023-02-05T18:25:56.582Z,64.75
2023-02-05T18:28:22.956Z,64.52
2023-02-05T18:30:59.375Z,63.59
2023-02-05T18:33:25.874Z,63.62
2023-02-05T18:35:52.339Z,64.20
2023-02-05T18:38:18.807Z,62.86
2023-02-05T18:40:45.230Z,63.77
2023-02-05T18:43:12.895Z,63.47
2023-02-05T18:45:39.796Z,63.35
2023-02-05T18:48:06.124Z,63.65
2023-02-05T18:50:32.631Z,63.49
2023-02-05T18:52:59.065Z,63.30
2023-02-05T18:55:25.453Z,64.40
2023-02-05T18:57:51.943Z,63.96
2023-02-05T19:00:18.430Z,63.80
2023-02-05T19:02:44.878Z,63.63
2023-02-05T19:05:11.741Z,62.92
2023-02-05T19:07:39.183Z,63.59
2023-02-05T19:10:06.257Z,64.45
2023-02-05T19:12:32.781Z,63.35
2023-02-05T19:14:59.457Z,63.36
2023-02-05T19:17:27.368Z,63.56
2023-02-05T19:19:54.704Z,62.99
2023-02-05T19:22:21.486Z,62.69
2023-02-05T19:24:48.004Z,64.34
2023-02-05T19:27:14.430Z,64.95
2023-02-05T19:29:41.095Z,64.73
2023-02-05T19:32:08.163Z,65.91
2023-02-05T19:34:34.806Z,65.18
2023-02-05T19:37:01.701Z,63.53
2023-02-05T19:39:28.067Z,65.55
2023-02-05T19:41:54.588Z,64.73
2023-02-05T19:44:21.006Z,64.12
2023-02-05T19:46:48.792Z,63.36
2023-02-05T19:49:16.664Z,63.87
2023-02-05T19:51:50.632Z,63.22
2023-02-05T19:54:17.250Z,64.19
2023-02-05T19:56:44.132Z,65.65
2023-02-05T19:59:10.672Z,64.09
2023-02-05T20:01:38.356Z,64.24
2023-02-05T20:04:17.144Z,64.15
2023-02-05T20:06:46.071Z,63.75
2023-02-05T20:09:13.434Z,64.03
2023-02-05T20:11:41.692Z,63.64
2023-02-05T20:14:08.720Z,63.20
2023-02-05T20:16:35.232Z,63.00
2023-02-05T20:19:01.940Z,62.74
2023-02-05T20:21:29.998Z,63.29
2023-02-05T20:23:57.161Z,64.20
2023-02-05T20:26:23.964Z,63.51
2023-02-05T20:29:11.392Z,64.02
2023-02-05T20:31:41.673Z,64.37
2023-02-05T20:34:08.082Z,63.81
2023-02-05T20:36:34.897Z,63.13
2023-02-05T20:39:02.334Z,64.32
2023-02-05T20:41:28.721Z,65.23
2023-02-05T20:43:56.432Z,64.50
2023-02-05T20:46:23.349Z,64.55
2023-02-05T20:48:50.004Z,64.43
2023-02-05T20:51:17.594Z,65.07
2023-02-05T20:53:44.783Z,65.10
2023-02-05T20:56:13.170Z,65.17
2023-02-05T20:58:40.012Z,65.35
2023-02-05T21:01:11.422Z,64.75
2023-02-05T21:03:38.990Z,64.33
2023-02-05T21:06:05.644Z,64.02
2023-02-05T21:08:32.510Z,64.16
2023-02-05T21:10:58.812Z,65.21
2023-02-05T21:13:25.293Z,64.04
2023-02-05T21:15:55.729Z,65.09
2023-02-05T21:18:22.785Z,64.02
2023-02-05T21:20:49.409Z,64.56
2023-02-05T21:23:15.865Z,64.29
2023-02-05T21:25:42.358Z,64.31
2023-02-05T21:28:08.783Z,64.35
2023-02-05T21:30:35.415Z,65.85
2023-02-05T21:33:01.944Z,66.50
2023-02-05T21:35:28.523Z,65.27
2023-02-05T21:37:54.885Z,65.26
2023-02-05T21:40:21.189Z,66.07
2023-02-05T21:42:47.598Z,65.65
2023-02-05T21:45:13.970Z,65.92
2023-02-05T21:47:40.302Z,66.04
2023-02-05T21:50:06.911Z,66.14
2023-02-05T21:52:33.342Z,65.86
2023-02-05T21:54:59.782Z,65.92
2023-02-05T21:57:26.077Z,64.63
2023-02-05T21:59:52.526Z,64.71
2023-02-05T22:02:18.863Z,64.89
2023-02-05T22:04:47.649Z,65.56
2023-02-05T22:07:13.982Z,65.46
2023-02-05T22:09:40.282Z,66.00
2023-02-05T22:12:06.632Z,65.44
2023-02-05T22:14:33.159Z,65.21
2023-02-05T22:17:00.162Z,64.61
2023-02-05T22:19:27.000Z,65.51
2023-02-05T22:21:53.539Z,65.38
2023-02-05T22:24:20.669Z,65.73
2023-02-05T22:26:47.511Z,65.58
2023-02-05T22:29:15.455Z,66.03
2023-02-05T22:31:42.336Z,65.66
2023-02-05T22:34:08.695Z,66.23
2023-02-05T22:36:35.356Z,65.54
2023-02-05T22:39:02.515Z,66.13
2023-02-05T22:41:30.649Z,66.27
2023-02-05T22:43:58.120Z,66.18
2023-02-05T22:46:26.011Z,65.45
2023-02-05T22:48:52.907Z,65.83
2023-02-05T22:51:21.092Z,65.99
2023-02-05T22:53:48.856Z,66.21
2023-02-05T22:56:15.653Z,66.41
2023-02-05T22:58:43.293Z,65.17
2023-02-05T23:01:13.648Z,65.38
2023-02-05T23:03:40.293Z,65.51
2023-02-05T23:06:11.555Z,66.02
2023-02-05T23:08:38.358Z,66.00
2023-02-05T23:11:05.862Z,65.40
2023-02-05T23:13:32.408Z,65.64
2023-02-05T23:16:04.550Z,65.39
2023-02-05T23:18:30.857Z,65.46
2023-02-05T23:20:57.166Z,66.21
2023-02-05T23:23:23.585Z,65.16
2023-02-05T23:25:51.624Z,65.37
2023-02-05T23:28:18.446Z,65.58
2023-02-05T23:30:45.015Z,65.88
2023-02-05T23:33:11.377Z,66.31
2023-02-05T23:35:37.876Z,65.37
2023-02-05T23:38:04.231Z,65.87
2023-02-05T23:40:30.544Z,65.73
2023-02-05T23:42:56.850Z,65.49
2023-02-05T23:45:23.204Z,65.13
2023-02-05T23:47:49.481Z,66.52
2023-02-05T23:50:15.978Z,66.44
2023-02-05T23:52:42.316Z,65.61
2023-02-05T23:55:08.620Z,65.91
2023-02-05T23:57:34.928Z,66.71
